Time;durP1;ratioP1;P1;durP2;ratioP2;P2;SDS_P1;SDS_P2;PMS_P1;PMS_P2;Temp;Humidity;BMP_temperature;BMP_pressure;BME280_temperature;BME280_humidity;BME280_pressure;Samples;Min_cycle;Max_cycle;Signal;HPM_P1;HPM_P2
2022/10/14 00:02:15;;;;;;;1999.90;999.90;;;17.00;99.90;;;;;;5031311;28;20466;-76
2022/10/14 00:04:40;;;;;;;1999.90;999.90;;;16.90;99.90;;;;;;5037868;28;20057;-76
2022/10/14 00:07:06;;;;;;;1999.90;999.90;;;16.90;99.90;;;;;;5035363;28;20048;-76
2022/10/14 00:09:32;;;;;;;1999.90;999.90;;;17.90;99.90;;;;;;5036334;28;20445;-77
2022/10/14 00:11:57;;;;;;;1999.90;999.90;;;16.80;99.90;;;;;;5036798;28;20037;-79
2022/10/14 00:14:23;;;;;;;1999.90;999.90;;;17.00;99.90;;;;;;5034899;28;20492;-76
2022/10/14 00:16:53;;;;;;;1999.90;999.90;;;17.60;99.90;;;;;;5034221;28;20037;-76
2022/10/14 00:19:18;;;;;;;1999.90;999.90;;;17.00;99.90;;;;;;5043736;28;20477;-76
2022/10/14 00:21:44;;;;;;;1999.90;999.90;;;17.80;99.90;;;;;;5038215;28;20198;-77
2022/10/14 00:24:12;;;;;;;1999.90;999.90;;;17.40;99.90;;;;;;5033306;28;20088;-76
2022/10/14 00:26:39;;;;;;;1999.90;999.90;;;17.60;99.90;;;;;;5036283;28;20052;-77
2022/10/14 00:29:08;;;;;;;1999.90;999.90;;;17.40;99.90;;;;;;5034923;28;20053;-77
2022/10/14 00:31:34;;;;;;;1999.90;999.90;;;18.60;99.90;;;;;;5038368;28;20084;-78
2022/10/14 00:34:00;;;;;;;1999.90;999.90;;;16.80;99.90;;;;;;5036887;28;20060;-77
2022/10/14 00:36:26;;;;;;;1999.90;999.90;;;17.70;99.90;;;;;;5019851;28;20517;-77
2022/10/14 00:38:53;;;;;;;1999.90;999.90;;;17.40;99.90;;;;;;5032122;28;20053;-76
2022/10/14 00:41:28;;;;;;;1999.90;999.90;;;17.70;99.90;;;;;;5043704;28;20068;-76
2022/10/14 00:44:04;;;;;;;1999.90;999.90;;;16.70;99.90;;;;;;5032148;28;20158;-78
2022/10/14 00:46:52;;;;;;;1999.90;999.90;;;17.70;99.90;;;;;;5032872;28;20494;-77
2022/10/14 00:49:21;;;;;;;1999.90;999.90;;;17.70;99.90;;;;;;5036175;28;20501;-77
2022/10/14 00:51:51;;;;;;;1999.90;999.90;;;17.70;99.90;;;;;;5033712;28;20048;-77
2022/10/14 00:54:19;;;;;;;1999.90;999.90;;;17.70;99.90;;;;;;5032308;28;20057;-77
2022/10/14 00:56:46;;;;;;;1999.90;999.90;;;16.70;99.90;;;;;;5040931;28;20056;-76
2022/10/14 00:59:13;;;;;;;1999.90;999.90;;;16.80;99.90;;;;;;5032828;28;20053;-77
2022/10/14 01:01:39;;;;;;;1999.90;999.90;;;17.70;99.90;;;;;;5030470;28;20309;-77
2022/10/14 01:04:04;;;;;;;1999.90;999.90;;;16.70;99.90;;;;;;5029721;28;20049;-79
2022/10/14 01:06:51;;;;;;;1999.90;999.90;;;16.70;99.90;;;;;;5017441;28;20045;-77
2022/10/14 01:09:32;;;;;;;1999.90;999.90;;;17.70;99.90;;;;;;5025454;28;20056;-77
2022/10/14 01:12:27;;;;;;;1999.90;999.90;;;17.30;99.90;;;;;;5032056;28;20524;-77
2022/10/14 01:15:17;;;;;;;1999.90;999.90;;;17.20;99.90;;;;;;5032658;28;20053;-77
2022/10/14 01:18:03;;;;;;;1999.90;999.90;;;17.10;99.90;;;;;;5024248;28;20216;-78
2022/10/14 01:20:46;;;;;;;1999.90;999.90;;;17.60;99.90;;;;;;5035015;28;20050;-77
2022/10/14 01:23:31;;;;;;;1999.90;999.90;;;17.00;99.90;;;;;;5029316;28;20053;-77
2022/10/14 01:26:02;;;;;;;1999.90;999.90;;;17.60;99.90;;;;;;5034298;28;20049;-80
2022/10/14 01:28:47;;;;;;;1999.90;999.90;;;17.50;99.90;;;;;;5035158;28;20127;-78
2022/10/14 01:31:20;;;;;;;1999.90;999.90;;;17.50;99.90;;;;;;5041334;28;20045;-78
2022/10/14 01:33:53;;;;;;;1999.90;999.90;;;16.60;99.90;;;;;;5032068;28;20274;-78
2022/10/14 01:36:47;;;;;;;1999.90;999.90;;;16.70;99.90;;;;;;5028897;28;20049;-78
2022/10/14 01:39:26;;;;;;;1999.90;999.90;;;17.00;99.90;;;;;;5005757;28;20061;-79
2022/10/14 01:42:06;;;;;;;1999.90;999.90;;;16.70;99.90;;;;;;5012806;28;20045;-79
2022/10/14 01:44:34;;;;;;;1999.90;999.90;;;16.90;99.90;;;;;;5012516;28;20497;-79
2022/10/14 01:47:02;;;;;;;1999.90;999.90;;;17.60;99.90;;;;;;5013418;28;20486;-79
2022/10/14 01:49:45;;;;;;;1999.90;999.90;;;17.70;99.90;;;;;;5013203;28;20054;-80
2022/10/14 01:52:21;;;;;;;1999.90;999.90;;;16.70;99.90;;;;;;5013187;28;20099;-80
2022/10/14 01:54:51;;;;;;;1999.90;999.90;;;17.70;99.90;;;;;;5013906;28;20046;-79
2022/10/14 01:57:22;;;;;;;1999.90;999.90;;;17.30;99.90;;;;;;5013110;28;20045;-79
2022/10/14 01:59:49;;;;;;;1999.90;999.90;;;16.80;99.90;;;;;;5013987;28;20044;-80
2022/10/14 02:02:16;;;;;;;1999.90;999.90;;;17.60;99.90;;;;;;5013249;28;20390;-79
2022/10/14 02:04:42;;;;;;;1999.90;999.90;;;16.60;99.90;;;;;;5013463;28;20054;-79
2022/10/14 02:07:19;;;;;;;1999.90;999.90;;;16.90;99.90;;;;;;5013326;28;20065;-79
2022/10/14 02:09:52;;;;;;;1999.90;999.90;;;17.70;99.90;;;;;;5013230;28;20056;-79
2022/10/14 02:12:24;;;;;;;1999.90;999.90;;;16.80;99.90;;;;;;5012334;28;20053;-79
2022/10/14 02:14:56;;;;;;;1999.90;999.90;;;16.70;99.90;;;;;;5012482;28;20056;-79
2022/10/14 02:17:36;;;;;;;1999.90;999.90;;;16.70;99.90;;;;;;5012629;28;20129;-79
2022/10/14 02:20:10;;;;;;;1999.90;999.90;;;17.40;99.90;;;;;;5013074;28;20056;-83
2022/10/14 02:22:45;;;;;;;1999.90;999.90;;;17.00;99.90;;;;;;5012353;28;20081;-79
2022/10/14 02:25:34;;;;;;;1999.90;999.90;;;17.30;99.90;;;;;;5012856;28;20038;-80
2022/10/14 02:28:02;;;;;;;1999.90;999.90;;;17.70;99.90;;;;;;5027638;28;20050;-79
2022/10/14 02:30:31;;;;;;;1999.90;999.90;;;17.30;99.90;;;;;;5010942;28;20104;-80
2022/10/14 02:32:59;;;;;;;1999.90;999.90;;;17.60;99.90;;;;;;5011352;28;20060;-80
2022/10/14 02:35:27;;;;;;;1999.90;999.90;;;17.40;99.90;;;;;;5012920;28;20207;-79
2022/10/14 02:37:53;;;;;;;1999.90;999.90;;;16.70;99.90;;;;;;5012564;28;20085;-79
2022/10/14 02:40:34;;;;;;;1999.90;999.90;;;16.80;99.90;;;;;;5012007;28;20057;-80
2022/10/14 02:43:00;;;;;;;1999.90;999.90;;;17.60;99.90;;;;;;5010938;28;20056;-79
2022/10/14 02:45:26;;;;;;;1999.90;999.90;;;17.10;99.90;;;;;;5011960;28;20197;-79
2022/10/14 02:47:53;;;;;;;1999.90;999.90;;;17.50;99.90;;;;;;5011744;28;20435;-80
2022/10/14 02:50:20;;;;;;;1999.90;999.90;;;17.40;99.90;;;;;;5011797;28;20085;-80
2022/10/14 02:52:45;;;;;;;1999.90;999.90;;;17.40;99.90;;;;;;5012274;28;20371;-80
2022/10/14 02:55:11;;;;;;;1999.90;999.90;;;17.60;99.90;;;;;;5013287;28;20128;-79
2022/10/14 02:57:36;;;;;;;1999.90;999.90;;;16.70;99.90;;;;;;5012092;28;20136;-80
2022/10/14 03:00:04;;;;;;;1999.90;999.90;;;17.30;99.90;;;;;;5010786;28;20056;-80
2022/10/14 03:02:30;;;;;;;;;;;17.10;99.90;;;;;;5011914;28;20486;-81
2022/10/14 03:04:57;;;;;;;1999.90;999.90;;;17.30;99.90;;;;;;5010689;28;19972;-80
2022/10/14 03:07:23;;;;;;;1999.90;999.90;;;17.50;99.90;;;;;;5011935;28;20046;-80
2022/10/14 03:09:49;;;;;;;1999.90;999.90;;;16.40;99.90;;;;;;5011330;28;20045;-80
2022/10/14 03:12:15;;;;;;;1999.90;999.90;;;17.40;99.90;;;;;;5011486;28;20044;-81
2022/10/14 03:14:41;;;;;;;1999.90;999.90;;;17.30;99.90;;;;;;5012276;28;20037;-80
2022/10/14 03:17:07;;;;;;;1999.90;999.90;;;17.30;99.90;;;;;;5012023;28;20049;-80
2022/10/14 03:19:33;;;;;;;1999.90;999.90;;;16.20;99.90;;;;;;5012167;28;20046;-80
2022/10/14 03:21:59;;;;;;;1999.90;999.90;;;16.40;99.90;;;;;;5011898;28;20093;-80
2022/10/14 03:24:24;;;;;;;1999.90;999.90;;;17.30;99.90;;;;;;5011230;28;20315;-80
2022/10/14 03:26:50;;;;;;;1999.90;999.90;;;16.20;99.90;;;;;;5011695;28;20092;-81
2022/10/14 03:29:16;;;;;;;1999.90;999.90;;;17.20;99.90;;;;;;5011971;28;20265;-81
2022/10/14 03:31:41;;;;;;;1999.90;999.90;;;16.20;99.90;;;;;;5011193;28;20129;-80
2022/10/14 03:34:07;;;;;;;1999.90;999.90;;;16.80;99.90;;;;;;4994803;28;20389;-81
2022/10/14 03:36:33;;;;;;;1999.90;999.90;;;16.20;99.90;;;;;;5011296;28;20459;-82
2022/10/14 03:38:59;;;;;;;1999.90;999.90;;;16.20;99.90;;;;;;5011444;28;20050;-81
2022/10/14 03:41:25;;;;;;;1999.90;999.90;;;17.10;99.90;;;;;;5012432;28;20060;-83
2022/10/14 03:43:50;;;;;;;1999.90;999.90;;;17.10;99.90;;;;;;5010398;28;20050;-81
2022/10/14 03:46:16;;;;;;;1999.90;999.90;;;16.10;99.90;;;;;;5010859;28;20050;-80
2022/10/14 03:48:41;;;;;;;1999.90;999.90;;;16.30;99.90;;;;;;5011549;28;20061;-81
2022/10/14 03:51:08;;;;;;;1999.90;999.90;;;17.00;99.90;;;;;;4994183;28;20058;-82
2022/10/14 03:53:33;;;;;;;1999.90;999.90;;;16.00;99.90;;;;;;5010109;28;20107;-81
2022/10/14 03:55:59;;;;;;;1999.90;999.90;;;17.00;99.90;;;;;;5012147;28;20500;-81
2022/10/14 03:58:25;;;;;;;1999.90;999.90;;;16.00;99.90;;;;;;5009648;28;20509;-81
2022/10/14 04:00:51;;;;;;;1999.90;999.90;;;16.20;99.90;;;;;;5011842;28;20038;-81
2022/10/14 04:03:16;;;;;;;1999.90;999.90;;;16.50;99.90;;;;;;5010790;28;20065;-81
2022/10/14 04:05:42;;;;;;;1999.90;999.90;;;16.10;99.90;;;;;;5011262;28;20402;-80
2022/10/14 04:08:08;;;;;;;1999.90;999.90;;;16.90;99.90;;;;;;5011305;28;20042;-81
2022/10/14 04:10:34;;;;;;;1999.90;999.90;;;17.10;99.90;;;;;;5011700;28;20057;-80
2022/10/14 04:13:00;;;;;;;1999.90;999.90;;;16.10;99.90;;;;;;5013098;28;20050;-81
2022/10/14 04:15:26;;;;;;;1999.90;999.90;;;16.10;99.90;;;;;;5014671;28;20080;-80
2022/10/14 04:17:51;;;;;;;1999.90;999.90;;;17.10;99.90;;;;;;5015164;28;20453;-80
2022/10/14 04:20:17;;;;;;;1999.90;999.90;;;17.20;99.90;;;;;;5013840;28;20053;-83
2022/10/14 04:22:43;;;;;;;1999.90;999.90;;;17.00;99.90;;;;;;5014334;28;20042;-81
2022/10/14 04:25:09;;;;;;;1999.90;999.90;;;16.30;99.90;;;;;;5014990;28;20141;-80
2022/10/14 04:27:35;;;;;;;1999.90;999.90;;;16.60;99.90;;;;;;5014119;28;20046;-81
2022/10/14 04:30:00;;;;;;;1999.90;999.90;;;17.20;99.90;;;;;;5015073;28;20046;-80
2022/10/14 04:32:26;;;;;;;1999.90;999.90;;;17.30;99.90;;;;;;5014638;28;20469;-80
2022/10/14 04:34:53;;;;;;;1999.90;999.90;;;17.30;99.90;;;;;;5012855;28;20045;-81
2022/10/14 04:37:19;;;;;;;1999.90;999.90;;;17.30;99.90;;;;;;5013545;28;20513;-80
2022/10/14 04:39:45;;;;;;;1999.90;999.90;;;17.30;99.90;;;;;;5014567;28;20046;-80
2022/10/14 04:42:11;;;;;;;1999.90;999.90;;;16.90;99.90;;;;;;5012920;28;20038;-83
2022/10/14 04:44:36;;;;;;;1999.90;999.90;;;16.40;99.90;;;;;;5012572;28;20057;-83
2022/10/14 04:47:02;;;;;;;1999.90;999.90;;;17.20;99.90;;;;;;5012847;28;20038;-82
2022/10/14 04:49:28;;;;;;;1999.90;999.90;;;16.30;99.90;;;;;;5013704;28;20136;-80
2022/10/14 04:51:53;;;;;;;1999.90;999.90;;;16.20;99.90;;;;;;5014543;28;20208;-81
2022/10/14 04:54:19;;;;;;;1999.90;999.90;;;17.20;99.90;;;;;;5014503;28;20116;-81
2022/10/14 04:56:45;;;;;;;1999.90;999.90;;;17.30;99.90;;;;;;5013443;28;20072;-81
2022/10/14 04:59:12;;;;;;;1999.90;999.90;;;17.20;99.90;;;;;;5012801;28;20152;-78
2022/10/14 05:01:38;;;;;;;1999.90;999.90;;;16.50;99.90;;;;;;5014017;28;20050;-81
2022/10/14 05:04:04;;;;;;;1999.90;999.90;;;16.20;99.90;;;;;;5013583;28;20066;-81
2022/10/14 05:06:30;;;;;;;1999.90;999.90;;;17.20;99.90;;;;;;5014479;28;20064;-81
2022/10/14 05:08:56;;;;;;;1999.90;999.90;;;17.30;99.90;;;;;;5012667;28;20191;-82
2022/10/14 05:11:22;;;;;;;1999.90;999.90;;;17.10;99.90;;;;;;5012888;28;20044;-81
2022/10/14 05:13:48;;;;;;;1999.90;999.90;;;17.30;99.90;;;;;;5012075;28;20044;-80
2022/10/14 05:16:14;;;;;;;1999.90;999.90;;;17.00;99.90;;;;;;5013147;28;20089;-81
2022/10/14 05:18:39;;;;;;;1999.90;999.90;;;16.30;99.90;;;;;;5014284;28;20470;-80
2022/10/14 05:21:06;;;;;;;1999.90;999.90;;;16.40;99.90;;;;;;5014694;28;20568;-81
2022/10/14 05:23:32;;;;;;;1999.90;999.90;;;17.50;99.90;;;;;;5013792;28;20085;-81
2022/10/14 05:25:58;;;;;;;1999.90;999.90;;;16.30;99.90;;;;;;5014584;28;20076;-81
2022/10/14 05:28:24;;;;;;;1999.90;999.90;;;16.40;99.90;;;;;;5013754;28;20046;-81
2022/10/14 05:30:49;;;;;;;1999.90;999.90;;;17.10;99.90;;;;;;5012130;28;20042;-81
2022/10/14 05:33:15;;;;;;;1999.90;999.90;;;16.70;99.90;;;;;;5013840;28;20054;-79
2022/10/14 05:35:42;;;;;;;1999.90;999.90;;;17.10;99.90;;;;;;5013094;28;20081;-79
2022/10/14 05:38:08;;;;;;;1999.90;999.90;;;17.30;99.90;;;;;;5014499;28;20319;-79
2022/10/14 05:40:33;;;;;;;1999.90;999.90;;;16.80;99.90;;;;;;5012876;28;20049;-78
2022/10/14 05:42:59;;;;;;;1999.90;999.90;;;16.50;99.90;;;;;;5012878;28;20050;-79
2022/10/14 05:45:25;;;;;;;1999.90;999.90;;;17.00;99.90;;;;;;5013690;28;20042;-79
2022/10/14 05:47:51;;;;;;;1999.90;999.90;;;17.10;99.90;;;;;;5012874;28;20057;-79
2022/10/14 05:50:17;;;;;;;1999.90;999.90;;;17.50;99.90;;;;;;5014192;28;20058;-79
2022/10/14 05:52:43;;;;;;;1999.90;999.90;;;17.20;99.90;;;;;;5013976;28;20045;-79
2022/10/14 05:55:08;;;;;;;1999.90;999.90;;;16.50;99.90;;;;;;5012054;28;20128;-80
2022/10/14 05:57:34;;;;;;;1999.90;999.90;;;17.50;99.90;;;;;;5013849;28;20048;-78
2022/10/14 06:00:00;;;;;;;1999.90;999.90;;;17.60;99.90;;;;;;5013690;28;20050;-79
2022/10/14 06:02:26;;;;;;;1999.90;999.90;;;16.60;99.90;;;;;;5013502;28;20041;-79
2022/10/14 06:04:52;;;;;;;1999.90;999.90;;;17.00;99.90;;;;;;5012250;28;20054;-79
2022/10/14 06:07:17;;;;;;;1999.90;999.90;;;16.60;99.90;;;;;;5012360;28;20523;-78
2022/10/14 06:09:43;;;;;;;1999.90;999.90;;;16.60;99.90;;;;;;5012224;28;20049;-79
2022/10/14 06:12:09;;;;;;;1999.90;999.90;;;17.50;99.90;;;;;;5011377;28;20168;-80
2022/10/14 06:14:37;;;;;;;1999.90;999.90;;;17.50;99.90;;;;;;5013167;28;20104;-79
2022/10/14 06:17:03;;;;;;;1999.90;999.90;;;16.60;99.90;;;;;;5012587;28;20056;-78
2022/10/14 06:19:30;;;;;;;1999.90;999.90;;;16.70;99.90;;;;;;5012572;28;20133;-79
2022/10/14 06:21:56;;;;;;;1999.90;999.90;;;17.60;99.90;;;;;;5013024;28;20042;-79
2022/10/14 06:24:22;;;;;;;1999.90;999.90;;;16.70;99.90;;;;;;5013977;28;20048;-79
2022/10/14 06:26:48;;;;;;;1999.90;999.90;;;16.70;99.90;;;;;;5013106;28;20080;-79
2022/10/14 06:29:14;;;;;;;1999.90;999.90;;;16.90;99.90;;;;;;5013593;28;20050;-78
2022/10/14 06:31:40;;;;;;;1999.90;999.90;;;16.70;99.90;;;;;;5013761;28;20084;-79
2022/10/14 06:34:06;;;;;;;1999.90;999.90;;;16.80;99.90;;;;;;5012826;28;20081;-79
2022/10/14 06:36:32;;;;;;;1999.90;999.90;;;16.80;99.90;;;;;;5012257;28;20053;-79
2022/10/14 06:38:57;;;;;;;1999.90;999.90;;;16.80;99.90;;;;;;5012024;28;20054;-79
2022/10/14 06:41:23;;;;;;;1999.90;999.90;;;16.80;99.90;;;;;;5013446;28;20068;-79
2022/10/14 06:43:49;;;;;;;1999.90;999.90;;;17.30;99.90;;;;;;5012775;28;20045;-79
2022/10/14 06:46:15;;;;;;;1999.90;999.90;;;17.80;99.90;;;;;;5013390;28;20050;-80
2022/10/14 06:48:40;;;;;;;1999.90;999.90;;;17.30;99.90;;;;;;5012141;28;20045;-80
2022/10/14 06:51:06;;;;;;;1999.90;999.90;;;16.80;99.90;;;;;;5011885;28;20088;-80
2022/10/14 06:53:32;;;;;;;1999.90;999.90;;;17.20;99.90;;;;;;5013174;28;20046;-80
2022/10/14 06:56:03;;;;;;;1999.90;999.90;;;17.00;99.90;;;;;;5012974;28;20494;-79
2022/10/14 06:58:29;;;;;;;1999.90;999.90;;;16.90;99.90;;;;;;5012780;28;20156;-79
2022/10/14 07:01:03;;;;;;;1999.90;999.90;;;17.50;99.90;;;;;;5012356;28;20038;-79
2022/10/14 07:03:30;;;;;;;1999.90;999.90;;;17.00;99.90;;;;;;5011877;28;20490;-80
2022/10/14 07:05:55;;;;;;;1999.90;999.90;;;16.90;99.90;;;;;;5012934;28;20057;-80
2022/10/14 07:08:21;;;;;;;1999.90;999.90;;;17.20;99.90;;;;;;5013041;28;20046;-80
2022/10/14 07:10:47;;;;;;;1999.90;999.90;;;17.00;99.90;;;;;;5013005;28;20077;-80
2022/10/14 07:13:13;;;;;;;1999.90;999.90;;;17.10;99.90;;;;;;5013071;28;20042;-79
2022/10/14 07:15:39;;;;;;;1999.90;999.90;;;17.70;99.90;;;;;;5013191;28;20104;-78
2022/10/14 07:18:05;;;;;;;1999.90;999.90;;;17.00;99.90;;;;;;5013161;28;20042;-81
2022/10/14 07:20:33;;;;;;;1999.90;999.90;;;17.00;99.90;;;;;;5012797;28;20058;-80
2022/10/14 07:22:59;;;;;;;1999.90;999.90;;;17.00;99.90;;;;;;5011474;28;20064;-80
2022/10/14 07:25:24;;;;;;;1999.90;999.90;;;18.00;99.90;;;;;;5013286;28;20128;-80
2022/10/14 07:27:53;;;;;;;1999.90;999.90;;;17.00;99.90;;;;;;5012259;28;20053;-81
2022/10/14 07:30:19;;;;;;;1999.90;999.90;;;17.00;99.90;;;;;;5012889;28;20049;-80
2022/10/14 07:32:44;;;;;;;1999.90;999.90;;;17.10;99.90;;;;;;5011613;28;20042;-80
2022/10/14 07:35:10;;;;;;;1999.90;999.90;;;18.00;99.90;;;;;;5011425;28;20042;-80
2022/10/14 07:37:36;;;;;;;1999.90;999.90;;;18.10;99.90;;;;;;5012772;28;20104;-80
2022/10/14 07:40:03;;;;;;;1999.90;999.90;;;17.90;99.90;;;;;;5012560;28;20050;-80
2022/10/14 07:42:29;;;;;;;1999.90;999.90;;;18.10;99.90;;;;;;5012113;28;20038;-80
2022/10/14 07:44:56;;;;;;;1999.90;999.90;;;17.80;99.90;;;;;;5012804;28;20042;-80
2022/10/14 07:47:22;;;;;;;1999.90;999.90;;;18.10;99.90;;;;;;5016338;28;20050;-81
2022/10/14 07:49:48;;;;;;;1999.90;999.90;;;18.20;99.90;;;;;;5016734;28;20057;-80
2022/10/14 07:52:14;;;;;;;1999.90;999.90;;;17.70;99.90;;;;;;5016065;28;20050;-80
2022/10/14 07:54:40;;;;;;;1999.90;999.90;;;17.20;99.90;;;;;;5016600;28;20054;-81
2022/10/14 07:57:06;;;;;;;1999.90;999.90;;;17.90;99.90;;;;;;5015945;28;20042;-80
2022/10/14 07:59:32;;;;;;;1999.90;999.90;;;17.30;99.90;;;;;;5016566;28;20549;-80
2022/10/14 08:01:58;;;;;;;1999.90;999.90;;;17.90;99.90;;;;;;5015652;28;20054;-81
2022/10/14 08:04:24;;;;;;;1999.90;999.90;;;17.60;99.90;;;;;;5015045;28;20054;-82
2022/10/14 08:06:50;;;;;;;1999.90;999.90;;;18.10;99.90;;;;;;5016144;28;20367;-80
2022/10/14 08:09:17;;;;;;;1999.90;999.90;;;18.30;99.90;;;;;;5016105;28;20042;-80
2022/10/14 08:11:44;;;;;;;1999.90;999.90;;;17.60;99.90;;;;;;5016086;28;20064;-81
2022/10/14 08:14:10;;;;;;;1999.90;999.90;;;18.30;99.90;;;;;;5016636;28;20398;-81
2022/10/14 08:16:36;;;;;;;1999.90;999.90;;;17.80;99.90;;;;;;5016873;28;20402;-81
2022/10/14 08:19:08;;;;;;;1999.90;999.90;;;17.50;99.90;;;;;;5015414;28;20046;-80
2022/10/14 08:21:34;;;;;;;1999.90;999.90;;;18.50;99.90;;;;;;5016144;28;20041;-79
2022/10/14 08:23:59;;;;;;;1999.90;999.90;;;18.50;99.90;;;;;;5016031;28;20050;-79
2022/10/14 08:26:35;;;;;;;1999.90;999.90;;;18.30;99.90;;;;;;5016329;28;20050;-79
2022/10/14 08:29:04;;;;;;;1999.90;999.90;;;18.40;99.90;;;;;;5014943;28;20085;-79
2022/10/14 08:31:30;;;;;;;1999.90;999.90;;;17.60;99.90;;;;;;5016315;28;20398;-79
2022/10/14 08:33:56;;;;;;;1999.90;999.90;;;18.00;99.90;;;;;;5017289;28;20049;-79
2022/10/14 08:36:23;;;;;;;1999.90;999.90;;;18.40;99.90;;;;;;5017692;28;20054;-80
2022/10/14 08:38:51;;;;;;;1999.90;999.90;;;18.40;99.90;;;;;;5017266;28;20042;-80
2022/10/14 08:41:43;;;;;;;1999.90;999.90;;;17.80;99.90;;;;;;5016353;28;20042;-80
2022/10/14 08:44:26;;;;;;;1999.90;999.90;;;18.20;99.90;;;;;;5005153;28;20054;-80
2022/10/14 08:47:02;;;;;;;1999.90;999.90;;;18.10;99.90;;;;;;5016501;28;20058;-80
2022/10/14 08:49:45;;;;;;;1999.90;999.90;;;17.80;99.90;;;;;;5017805;28;20042;-80
2022/10/14 08:52:26;;;;;;;1999.90;999.90;;;17.80;99.90;;;;;;5016317;28;20112;-80
2022/10/14 08:54:57;;;;;;;1999.90;999.90;;;17.90;99.90;;;;;;5016925;28;20046;-80
2022/10/14 08:57:36;;;;;;;1999.90;999.90;;;18.70;99.90;;;;;;5014246;28;20076;-81
2022/10/14 09:00:03;;;;;;;1999.90;999.90;;;18.70;99.90;;;;;;5015470;28;20050;-81
2022/10/14 09:02:36;;;;;;;1999.90;999.90;;;18.60;99.90;;;;;;5014036;28;20038;-81
2022/10/14 09:05:03;;;;;;;1999.90;999.90;;;18.60;99.90;;;;;;5015415;28;20058;-82
2022/10/14 09:07:31;;;;;;;1999.90;999.90;;;18.60;99.90;;;;;;5014607;28;20046;-81
2022/10/14 09:09:59;;;;;;;;;;;18.50;99.90;;;;;;5015741;28;20060;-80
2022/10/14 09:12:29;;;;;;;1999.90;999.90;;;18.60;99.90;;;;;;5014680;28;19921;-81
2022/10/14 09:15:10;;;;;;;1999.90;999.90;;;18.50;99.90;;;;;;5014398;28;20061;-81
2022/10/14 09:17:47;;;;;;;1999.90;999.90;;;18.30;99.90;;;;;;5014074;28;20089;-81
2022/10/14 09:20:22;;;;;;;1999.90;999.90;;;18.80;99.90;;;;;;5014683;28;20420;-81
2022/10/14 09:23:10;;;;;;;1999.90;999.90;;;17.90;99.90;;;;;;5013603;28;20452;-80
2022/10/14 09:25:40;;;;;;;1999.90;999.90;;;18.60;99.90;;;;;;5015395;28;20052;-80
2022/10/14 09:28:07;;;;;;;1999.90;999.90;;;17.90;99.90;;;;;;5013243;28;20057;-81
2022/10/14 09:30:36;;;;;;;1999.90;999.90;;;17.80;99.90;;;;;;5014359;28;20056;-80
2022/10/14 09:33:04;;;;;;;1999.90;999.90;;;18.70;99.90;;;;;;5014860;28;20088;-80
2022/10/14 09:35:39;;;;;;;1999.90;999.90;;;17.90;99.90;;;;;;5015254;28;20074;-80
2022/10/14 09:38:06;;;;;;;1999.90;999.90;;;18.40;99.90;;;;;;5014941;28;20057;-79
2022/10/14 09:40:38;;;;;;;1999.90;999.90;;;17.90;99.90;;;;;;5013563;28;20061;-79
2022/10/14 09:43:17;;;;;;;1999.90;999.90;;;18.90;99.90;;;;;;5013124;28;20049;-78
2022/10/14 09:45:50;;;;;;;1999.90;999.90;;;18.30;99.90;;;;;;5014618;28;20060;-77
2022/10/14 09:48:48;;;;;;;1999.90;999.90;;;18.60;99.90;;;;;;5013062;28;20052;-78
2022/10/14 09:51:29;;;;;;;1999.90;999.90;;;18.70;99.90;;;;;;5013881;28;20056;-82
2022/10/14 09:54:03;;;;;;;1999.90;999.90;;;19.10;99.90;;;;;;5014037;28;20041;-82
2022/10/14 09:56:38;;;;;;;1999.90;999.90;;;18.00;99.90;;;;;;5012726;28;20208;-81
2022/10/14 09:59:15;;;;;;;1999.90;999.90;;;18.40;99.90;;;;;;5012462;28;20057;-81
2022/10/14 10:01:48;;;;;;;1999.90;999.90;;;19.50;99.90;;;;;;5013554;28;20042;-81
2022/10/14 10:04:40;;;;;;;1999.90;999.90;;;19.10;99.90;;;;;;5013802;28;20085;-82
2022/10/14 10:07:21;;;;;;;1999.90;999.90;;;19.40;99.90;;;;;;5013922;28;20053;-81
2022/10/14 10:09:54;;;;;;;1999.90;999.90;;;18.00;99.90;;;;;;5012917;28;20112;-81
2022/10/14 10:12:34;;;;;;;1999.90;999.90;;;19.60;99.90;;;;;;5013118;28;20092;-82
2022/10/14 10:15:05;;;;;;;1999.90;999.90;;;18.00;99.90;;;;;;5013722;28;20398;-81
2022/10/14 10:17:34;;;;;;;1999.90;999.90;;;19.40;99.90;;;;;;5011927;28;20042;-81
2022/10/14 10:20:18;;;;;;;1999.90;999.90;;;19.50;99.90;;;;;;5012600;28;20085;-81
2022/10/14 10:22:44;;;;;;;1999.90;999.90;;;18.10;99.90;;;;;;5012266;28;20050;-81
2022/10/14 10:25:10;;;;;;;1999.90;999.90;;;19.50;99.90;;;;;;5013122;28;20061;-81
2022/10/14 10:27:46;;;;;;;1999.90;999.90;;;19.60;99.90;;;;;;5012706;28;20447;-81
2022/10/14 10:30:22;;;;;;;1999.90;999.90;;;18.40;99.90;;;;;;5012602;28;20038;-81
2022/10/14 10:33:12;;;;;;;1999.90;999.90;;;17.90;99.90;;;;;;5012274;28;20062;-81
2022/10/14 10:35:37;;;;;;;1999.90;999.90;;;18.50;99.90;;;;;;5013032;28;20518;-82
2022/10/14 10:38:44;;;;;;;1999.90;999.90;;;17.90;99.90;;;;;;5012219;28;20181;-82
2022/10/14 10:41:24;;;;;;;1999.90;999.90;;;19.00;99.90;;;;;;5013186;28;20049;-82
2022/10/14 10:44:21;;;;;;;1999.90;999.90;;;18.40;99.90;;;;;;5013122;28;20042;-84
2022/10/14 10:47:05;;;;;;;1999.90;999.90;;;18.60;99.90;;;;;;4995966;28;20054;-83
2022/10/14 10:49:59;;;;;;;1999.90;999.90;;;18.30;99.90;;;;;;5013139;28;20099;-84
2022/10/14 10:52:39;;;;;;;1999.90;999.90;;;19.60;99.90;;;;;;5012736;28;20046;-84
2022/10/14 10:55:38;;;;;;;1999.90;999.90;;;20.00;99.90;;;;;;5013342;28;20054;-83
2022/10/14 10:58:20;;;;;;;1999.90;999.90;;;20.00;99.90;;;;;;4928909;28;20061;-84
2022/10/14 11:00:56;;;;;;;1999.90;999.90;;;18.40;99.90;;;;;;5013081;28;20129;-84
2022/10/14 11:03:59;;;;;;;1999.90;999.90;;;19.30;99.90;;;;;;5012560;28;20388;-85
2022/10/14 11:13:03;;;;;;;1999.90;999.90;;;19.90;99.90;;;;;;5012706;28;20510;-84
2022/10/14 11:15:37;;;;;;;1999.90;999.90;;;19.90;99.90;;;;;;5012742;28;20061;-85
2022/10/14 11:18:28;;;;;;;1999.90;999.90;;;19.70;99.90;;;;;;5013176;28;20050;-86
2022/10/14 11:21:09;;;;;;;1999.90;999.90;;;19.00;99.90;;;;;;5011734;28;20049;-84
2022/10/14 11:23:59;;;;;;;1999.90;999.90;;;18.60;99.90;;;;;;5011798;28;20061;-84
2022/10/14 11:26:30;;;;;;;;;;;19.00;99.90;;;;;;5013441;28;20081;-86
2022/10/14 11:29:25;;;;;;;1999.90;999.90;;;19.90;99.90;;;;;;5012838;28;19944;-86
2022/10/14 11:32:16;;;;;;;1999.90;999.90;;;19.00;99.90;;;;;;5013065;28;20549;-84
2022/10/14 11:34:47;;;;;;;1999.90;999.90;;;20.40;99.90;;;;;;5013053;28;20046;-85
2022/10/14 11:37:25;;;;;;;1999.90;999.90;;;18.90;99.90;;;;;;5011994;28;20045;-86
2022/10/14 11:40:29;;;;;;;1999.90;999.90;;;19.70;99.90;;;;;;5013171;28;20071;-86
2022/10/14 11:43:31;;;;;;;1999.90;999.90;;;19.10;99.90;;;;;;4932120;29;20047;-85
2022/10/14 11:46:05;;;;;;;1999.90;999.90;;;19.10;99.90;;;;;;5012788;28;20056;-86
2022/10/14 11:48:56;;;;;;;1999.90;999.90;;;20.00;99.90;;;;;;5012447;28;20108;-86
2022/10/14 11:51:39;;;;;;;1999.90;999.90;;;19.90;99.90;;;;;;5011646;28;20034;-85
2022/10/14 11:54:38;;;;;;;1999.90;999.90;;;20.50;99.90;;;;;;5012575;28;20057;-85
2022/10/14 11:57:17;;;;;;;1999.90;999.90;;;18.90;99.90;;;;;;5011134;28;20046;-86
2022/10/14 11:59:46;;;;;;;1999.90;999.90;;;19.70;99.90;;;;;;5012465;28;20124;-86
2022/10/14 12:02:38;;;;;;;1999.90;999.90;;;19.20;99.90;;;;;;5011280;28;20049;-87
2022/10/14 12:05:28;;;;;;;1999.90;999.90;;;19.00;99.90;;;;;;5010732;28;20143;-87
2022/10/14 12:08:14;;;;;;;1999.90;999.90;;;19.20;99.90;;;;;;5012449;28;20137;-85
2022/10/14 12:10:46;;;;;;;1999.90;999.90;;;19.20;99.90;;;;;;5011334;28;20089;-87
2022/10/14 12:13:15;;;;;;;1999.90;999.90;;;19.70;99.90;;;;;;5012140;28;20046;-85
2022/10/14 12:15:48;;;;;;;1999.90;999.90;;;19.00;99.90;;;;;;5012006;28;20072;-87
2022/10/14 12:18:13;;;;;;;1999.90;999.90;;;19.80;99.90;;;;;;5012473;28;20087;-87
2022/10/14 12:21:18;;;;;;;1999.90;999.90;;;20.40;99.90;;;;;;5012036;28;20046;-87
2022/10/14 12:24:09;;;;;;;1999.90;999.90;;;20.50;99.90;;;;;;5010898;28;20104;-87
2022/10/14 12:26:54;;;;;;;1999.90;999.90;;;19.20;99.90;;;;;;5011819;28;20057;-85
2022/10/14 12:29:23;;;;;;;1999.90;999.90;;;19.30;99.90;;;;;;5012069;28;20129;-88